sensor_id;sensor_type;location;lat;lon;timestamp;pressure;altitude;pressure_sealevel;temperature;humidity
81196;BME280;70671;43.888;-79.394;2024-03-23T00:53:53;99727.59;;;-4.05;78.14
81196;BME280;70671;43.888;-79.394;2024-03-23T00:56:19;99722.09;;;-4.21;78.97
81196;BME280;70671;43.888;-79.394;2024-03-23T00:58:45;99728.03;;;-4.15;78.52
81196;BME280;70671;43.888;-79.394;2024-03-23T01:01:11;99718.59;;;-4.13;78.87
81196;BME280;70671;43.888;-79.394;2024-03-23T01:03:37;99740.97;;;-4.05;78.95
81196;BME280;70671;43.888;-79.394;2024-03-23T01:06:03;99739.09;;;-4.38;79.55
81196;BME280;70671;43.888;-79.394;2024-03-23T01:08:29;99746.53;;;-4.31;80.38
81196;BME280;70671;43.888;-79.394;2024-03-23T01:10:56;99723.50;;;-4.48;80.73
81196;BME280;70671;43.888;-79.394;2024-03-23T01:13:23;99733.09;;;-4.35;80.29
81196;BME280;70671;43.888;-79.394;2024-03-23T01:15:53;99712.22;;;-4.21;80.08
81196;BME280;70671;43.888;-79.394;2024-03-23T01:18:21;99725.28;;;-4.07;79.30
81196;BME280;70671;43.888;-79.394;2024-03-23T01:20:47;99704.03;;;-4.03;78.57
81196;BME280;70671;43.888;-79.394;2024-03-23T01:23:14;99717.72;;;-3.93;79.55
81196;BME280;70671;43.888;-79.394;2024-03-23T01:25:40;99719.94;;;-4.07;79.74
81196;BME280;70671;43.888;-79.394;2024-03-23T01:28:07;99718.84;;;-3.82;78.26
81196;BME280;70671;43.888;-79.394;2024-03-23T01:30:34;99704.00;;;-4.15;78.88
81196;BME280;70671;43.888;-79.394;2024-03-23T01:33:00;99711.47;;;-4.09;79.35
81196;BME280;70671;43.888;-79.394;2024-03-23T01:35:28;99702.75;;;-4.18;79.33
81196;BME280;70671;43.888;-79.394;2024-03-23T01:37:54;99695.75;;;-4.23;80.18
81196;BME280;70671;43.888;-79.394;2024-03-23T01:40:20;99686.41;;;-4.17;79.51
81196;BME280;70671;43.888;-79.394;2024-03-23T01:42:56;99699.31;;;-4.51;80.86
81196;BME280;70671;43.888;-79.394;2024-03-23T01:45:22;99664.72;;;-4.60;80.67
81196;BME280;70671;43.888;-79.394;2024-03-23T01:47:52;99672.56;;;-4.43;79.37
81196;BME280;70671;43.888;-79.394;2024-03-23T01:50:21;99684.41;;;-4.20;79.50
81196;BME280;70671;43.888;-79.394;2024-03-23T01:52:48;99681.72;;;-4.32;80.01
81196;BME280;70671;43.888;-79.394;2024-03-23T01:55:14;99676.59;;;-4.25;79.55
81196;BME280;70671;43.888;-79.394;2024-03-23T01:57:40;99662.81;;;-4.27;78.98
81196;BME280;70671;43.888;-79.394;2024-03-23T02:00:07;99640.63;;;-4.39;78.22
81196;BME280;70671;43.888;-79.394;2024-03-23T02:02:35;99680.59;;;-4.31;79.60
81196;BME280;70671;43.888;-79.394;2024-03-23T02:05:01;99654.88;;;-4.35;79.29
81196;BME280;70671;43.888;-79.394;2024-03-23T02:07:27;99644.94;;;-4.59;79.28
81196;BME280;70671;43.888;-79.394;2024-03-23T02:09:53;99672.91;;;-4.32;80.44
81196;BME280;70671;43.888;-79.394;2024-03-23T02:12:20;99672.47;;;-4.34;78.69
81196;BME280;70671;43.888;-79.394;2024-03-23T02:14:46;99672.06;;;-4.57;79.65
81196;BME280;70671;43.888;-79.394;2024-03-23T02:17:13;99674.38;;;-4.23;79.20
81196;BME280;70671;43.888;-79.394;2024-03-23T02:19:39;99667.28;;;-4.06;78.57
81196;BME280;70671;43.888;-79.394;2024-03-23T02:22:05;99664.44;;;-4.46;78.82
81196;BME280;70671;43.888;-79.394;2024-03-23T02:24:31;99691.06;;;-4.26;78.74
81196;BME280;70671;43.888;-79.394;2024-03-23T02:26:57;99687.09;;;-4.20;78.41
81196;BME280;70671;43.888;-79.394;2024-03-23T02:29:23;99691.50;;;-4.36;79.25
81196;BME280;70671;43.888;-79.394;2024-03-23T02:31:49;99688.38;;;-4.38;78.91
81196;BME280;70671;43.888;-79.394;2024-03-23T02:34:15;99668.34;;;-4.44;78.75
81196;BME280;70671;43.888;-79.394;2024-03-23T02:36:41;99669.72;;;-4.26;78.16
81196;BME280;70671;43.888;-79.394;2024-03-23T02:39:06;99685.06;;;-4.23;77.81
81196;BME280;70671;43.888;-79.394;2024-03-23T02:41:32;99663.81;;;-4.64;79.62
81196;BME280;70671;43.888;-79.394;2024-03-23T02:43:58;99668.13;;;-4.27;79.06
81196;BME280;70671;43.888;-79.394;2024-03-23T02:46:24;99664.56;;;-4.43;79.26
81196;BME280;70671;43.888;-79.394;2024-03-23T02:48:50;99665.28;;;-4.22;77.99
81196;BME280;70671;43.888;-79.394;2024-03-23T02:51:16;99653.56;;;-4.29;78.26
81196;BME280;70671;43.888;-79.394;2024-03-23T02:53:42;99639.44;;;-4.30;78.02
81196;BME280;70671;43.888;-79.394;2024-03-23T02:56:08;99637.69;;;-4.26;77.33
81196;BME280;70671;43.888;-79.394;2024-03-23T02:58:34;99664.59;;;-4.19;77.90
81196;BME280;70671;43.888;-79.394;2024-03-23T03:01:00;99623.41;;;-4.42;77.74
81196;BME280;70671;43.888;-79.394;2024-03-23T03:03:26;99644.91;;;-4.26;77.76
81196;BME280;70671;43.888;-79.394;2024-03-23T03:05:56;99636.00;;;-4.18;77.80
81196;BME280;70671;43.888;-79.394;2024-03-23T03:08:22;99626.81;;;-4.53;78.54
81196;BME280;70671;43.888;-79.394;2024-03-23T03:10:48;99646.44;;;-4.25;78.11
81196;BME280;70671;43.888;-79.394;2024-03-23T03:13:14;99613.13;;;-4.52;79.07
81196;BME280;70671;43.888;-79.394;2024-03-23T03:15:42;99625.75;;;-4.40;78.55
81196;BME280;70671;43.888;-79.394;2024-03-23T03:18:08;99608.75;;;-4.36;78.52
81196;BME280;70671;43.888;-79.394;2024-03-23T03:20:38;99625.94;;;-4.45;78.75
81196;BME280;70671;43.888;-79.394;2024-03-23T03:23:05;99603.59;;;-4.41;78.30
81196;BME280;70671;43.888;-79.394;2024-03-23T03:25:31;99639.22;;;-4.12;78.00
81196;BME280;70671;43.888;-79.394;2024-03-23T03:27:57;99636.66;;;-4.33;78.48
81196;BME280;70671;43.888;-79.394;2024-03-23T03:30:23;99616.50;;;-4.43;78.82
81196;BME280;70671;43.888;-79.394;2024-03-23T03:32:50;99604.16;;;-4.47;78.49
81196;BME280;70671;43.888;-79.394;2024-03-23T03:35:16;99607.69;;;-4.55;78.43
81196;BME280;70671;43.888;-79.394;2024-03-23T03:37:42;99620.75;;;-4.30;78.00
81196;BME280;70671;43.888;-79.394;2024-03-23T03:40:09;99605.81;;;-4.43;78.36
81196;BME280;70671;43.888;-79.394;2024-03-23T03:42:35;99618.97;;;-4.38;77.87
81196;BME280;70671;43.888;-79.394;2024-03-23T03:45:01;99626.97;;;-4.38;77.97
81196;BME280;70671;43.888;-79.394;2024-03-23T03:47:27;99629.81;;;-4.55;78.71
81196;BME280;70671;43.888;-79.394;2024-03-23T03:49:53;99629.50;;;-4.41;78.01
81196;BME280;70671;43.888;-79.394;2024-03-23T03:52:19;99611.47;;;-4.56;77.59
81196;BME280;70671;43.888;-79.394;2024-03-23T03:54:45;99619.63;;;-4.29;77.09
81196;BME280;70671;43.888;-79.394;2024-03-23T03:57:11;99621.94;;;-4.39;77.29
81196;BME280;70671;43.888;-79.394;2024-03-23T03:59:36;99593.91;;;-4.57;78.05
81196;BME280;70671;43.888;-79.394;2024-03-23T04:02:03;99607.41;;;-4.42;77.44
81196;BME280;70671;43.888;-79.394;2024-03-23T04:04:29;99622.59;;;-4.66;77.99
81196;BME280;70671;43.888;-79.394;2024-03-23T04:07:02;99604.94;;;-4.47;77.83
81196;BME280;70671;43.888;-79.394;2024-03-23T04:09:28;99607.72;;;-4.31;77.10
81196;BME280;70671;43.888;-79.394;2024-03-23T04:11:54;99606.50;;;-4.46;77.65
81196;BME280;70671;43.888;-79.394;2024-03-23T04:14:20;99598.78;;;-4.59;78.41
81196;BME280;70671;43.888;-79.394;2024-03-23T04:16:46;99577.34;;;-4.51;77.80
81196;BME280;70671;43.888;-79.394;2024-03-23T04:19:12;99465.44;;;-5.49;77.84
81196;BME280;70671;43.888;-79.394;2024-03-23T04:21:38;99600.06;;;-4.33;77.34
81196;BME280;70671;43.888;-79.394;2024-03-23T04:24:04;99574.94;;;-4.44;76.85
81196;BME280;70671;43.888;-79.394;2024-03-23T04:26:30;99575.69;;;-4.31;76.96
81196;BME280;70671;43.888;-79.394;2024-03-23T04:29:06;99587.72;;;-4.13;75.92
81196;BME280;70671;43.888;-79.394;2024-03-23T04:31:32;99540.19;;;-4.56;76.42
81196;BME280;70671;43.888;-79.394;2024-03-23T04:34:01;99576.03;;;-4.45;77.01
81196;BME280;70671;43.888;-79.394;2024-03-23T04:36:27;99553.78;;;-4.49;76.74
81196;BME280;70671;43.888;-79.394;2024-03-23T04:38:52;99546.00;;;-4.42;76.61
81196;BME280;70671;43.888;-79.394;2024-03-23T04:41:18;99565.47;;;-4.29;76.36
81196;BME280;70671;43.888;-79.394;2024-03-23T04:43:45;99523.63;;;-4.49;76.03
81196;BME280;70671;43.888;-79.394;2024-03-23T04:46:11;99562.69;;;-4.33;76.33
81196;BME280;70671;43.888;-79.394;2024-03-23T04:48:37;99564.00;;;-4.39;76.47
81196;BME280;70671;43.888;-79.394;2024-03-23T04:51:03;99572.47;;;-4.49;76.59
81196;BME280;70671;43.888;-79.394;2024-03-23T04:53:29;99576.13;;;-4.41;76.57
81196;BME280;70671;43.888;-79.394;2024-03-23T04:55:56;99531.50;;;-4.77;78.43
81196;BME280;70671;43.888;-79.394;2024-03-23T04:58:22;99564.47;;;-4.37;77.80
81196;BME280;70671;43.888;-79.394;2024-03-23T05:00:54;99571.59;;;-4.29;76.55
81196;BME280;70671;43.888;-79.394;2024-03-23T05:03:21;99560.47;;;-4.31;76.60
81196;BME280;70671;43.888;-79.394;2024-03-23T05:05:48;99554.47;;;-4.28;76.21
81196;BME280;70671;43.888;-79.394;2024-03-23T05:08:15;99557.69;;;-4.22;76.35
81196;BME280;70671;43.888;-79.394;2024-03-23T05:10:43;99548.53;;;-4.45;75.78
81196;BME280;70671;43.888;-79.394;2024-03-23T05:13:10;99565.34;;;-4.21;75.89
81196;BME280;70671;43.888;-79.394;2024-03-23T05:15:36;99569.25;;;-4.42;75.49
81196;BME280;70671;43.888;-79.394;2024-03-23T05:18:02;99567.47;;;-4.50;76.19
81196;BME280;70671;43.888;-79.394;2024-03-23T05:20:28;99548.44;;;-4.37;76.13
81196;BME280;70671;43.888;-79.394;2024-03-23T05:22:57;99564.91;;;-4.23;76.09
81196;BME280;70671;43.888;-79.394;2024-03-23T05:25:23;99560.56;;;-4.27;75.61
81196;BME280;70671;43.888;-79.394;2024-03-23T05:27:49;99551.13;;;-4.25;76.18
81196;BME280;70671;43.888;-79.394;2024-03-23T05:30:15;99521.75;;;-4.49;76.65
81196;BME280;70671;43.888;-79.394;2024-03-23T05:32:41;99516.84;;;-4.47;76.50
81196;BME280;70671;43.888;-79.394;2024-03-23T05:35:09;99522.88;;;-4.38;76.28
81196;BME280;70671;43.888;-79.394;2024-03-23T05:37:35;99533.09;;;-4.28;76.05
81196;BME280;70671;43.888;-79.394;2024-03-23T05:40:03;99534.88;;;-4.32;76.19
81196;BME280;70671;43.888;-79.394;2024-03-23T05:42:29;99547.56;;;-4.41;76.67
81196;BME280;70671;43.888;-79.394;2024-03-23T05:44:55;99546.56;;;-4.36;76.36
81196;BME280;70671;43.888;-79.394;2024-03-23T05:47:21;99526.00;;;-4.48;76.00
81196;BME280;70671;43.888;-79.394;2024-03-23T05:49:47;99515.19;;;-4.51;76.08
81196;BME280;70671;43.888;-79.394;2024-03-23T05:52:13;99527.97;;;-4.45;76.33
81196;BME280;70671;43.888;-79.394;2024-03-23T05:54:39;99519.28;;;-4.54;76.30
81196;BME280;70671;43.888;-79.394;2024-03-23T05:57:05;99542.66;;;-4.39;75.60
81196;BME280;70671;43.888;-79.394;2024-03-23T05:59:34;99531.53;;;-4.53;75.79
81196;BME280;70671;43.888;-79.394;2024-03-23T06:02:00;99506.53;;;-4.48;75.40
81196;BME280;70671;43.888;-79.394;2024-03-23T06:04:26;99498.72;;;-4.53;75.64
81196;BME280;70671;43.888;-79.394;2024-03-23T06:06:52;99488.59;;;-4.60;76.13
81196;BME280;70671;43.888;-79.394;2024-03-23T06:09:18;99484.81;;;-4.83;76.43
81196;BME280;70671;43.888;-79.394;2024-03-23T06:11:48;99506.06;;;-4.62;76.71
81196;BME280;70671;43.888;-79.394;2024-03-23T06:14:14;99503.72;;;-4.64;76.20
81196;BME280;70671;43.888;-79.394;2024-03-23T06:16:40;99478.25;;;-4.73;75.83
81196;BME280;70671;43.888;-79.394;2024-03-23T06:19:07;99492.41;;;-4.61;75.82
81196;BME280;70671;43.888;-79.394;2024-03-23T06:21:33;99515.53;;;-4.53;74.81
81196;BME280;70671;43.888;-79.394;2024-03-23T06:23:59;99500.94;;;-4.43;75.11
81196;BME280;70671;43.888;-79.394;2024-03-23T06:26:25;99506.19;;;-4.59;75.31
81196;BME280;70671;43.888;-79.394;2024-03-23T06:28:51;99502.38;;;-4.82;75.21
81196;BME280;70671;43.888;-79.394;2024-03-23T06:31:17;99485.94;;;-4.72;76.12
81196;BME280;70671;43.888;-79.394;2024-03-23T06:33:43;99484.84;;;-4.59;75.42
81196;BME280;70671;43.888;-79.394;2024-03-23T06:36:10;99485.97;;;-4.48;75.27
81196;BME280;70671;43.888;-79.394;2024-03-23T06:38:37;99445.13;;;-4.84;75.62
81196;BME280;70671;43.888;-79.394;2024-03-23T06:41:06;99486.38;;;-4.58;75.92
81196;BME280;70671;43.888;-79.394;2024-03-23T06:43:32;99370.78;;;-5.34;76.01
81196;BME280;70671;43.888;-79.394;2024-03-23T06:45:58;99466.81;;;-4.74;75.94
81196;BME280;70671;43.888;-79.394;2024-03-23T06:48:24;99481.16;;;-4.78;76.88
81196;BME280;70671;43.888;-79.394;2024-03-23T06:50:55;99461.28;;;-4.69;76.38
81196;BME280;70671;43.888;-79.394;2024-03-23T06:53:21;99483.94;;;-4.63;75.49
81196;BME280;70671;43.888;-79.394;2024-03-23T06:55:51;99474.59;;;-4.69;75.88
81196;BME280;70671;43.888;-79.394;2024-03-23T06:58:19;99491.94;;;-4.87;76.34
81196;BME280;70671;43.888;-79.394;2024-03-23T07:00:45;99497.28;;;-4.51;75.39
81196;BME280;70671;43.888;-79.394;2024-03-23T07:03:11;99487.16;;;-4.57;75.23
81196;BME280;70671;43.888;-79.394;2024-03-23T07:05:38;99464.59;;;-4.72;75.09
81196;BME280;70671;43.888;-79.394;2024-03-23T07:08:04;99442.81;;;-4.86;75.69
81196;BME280;70671;43.888;-79.394;2024-03-23T07:10:30;99457.72;;;-4.73;75.13
81196;BME280;70671;43.888;-79.394;2024-03-23T07:12:56;99425.91;;;-5.02;75.77
81196;BME280;70671;43.888;-79.394;2024-03-23T07:15:22;99477.28;;;-4.81;76.43
81196;BME280;70671;43.888;-79.394;2024-03-23T07:17:48;99474.81;;;-4.74;76.43
81196;BME280;70671;43.888;-79.394;2024-03-23T07:20:14;99471.94;;;-4.81;76.65
81196;BME280;70671;43.888;-79.394;2024-03-23T07:22:40;99453.56;;;-4.94;76.79
81196;BME280;70671;43.888;-79.394;2024-03-23T07:25:06;99440.13;;;-4.98;77.19
81196;BME280;70671;43.888;-79.394;2024-03-23T07:27:32;99464.38;;;-4.79;76.37
81196;BME280;70671;43.888;-79.394;2024-03-23T07:29:59;99446.34;;;-4.82;76.18
81196;BME280;70671;43.888;-79.394;2024-03-23T07:32:26;99461.47;;;-4.74;76.15
81196;BME280;70671;43.888;-79.394;2024-03-23T07:34:52;99438.69;;;-4.95;76.80
81196;BME280;70671;43.888;-79.394;2024-03-23T07:37:18;99451.69;;;-4.94;76.77
81196;BME280;70671;43.888;-79.394;2024-03-23T07:39:44;99461.47;;;-4.86;76.61
81196;BME280;70671;43.888;-79.394;2024-03-23T07:42:10;99492.66;;;-4.98;77.59
81196;BME280;70671;43.888;-79.394;2024-03-23T07:44:36;99464.47;;;-4.87;77.07
81196;BME280;70671;43.888;-79.394;2024-03-23T07:47:03;99466.69;;;-4.77;76.17
81196;BME280;70671;43.888;-79.394;2024-03-23T07:49:29;99476.91;;;-4.91;76.81
81196;BME280;70671;43.888;-79.394;2024-03-23T07:51:55;99465.00;;;-5.06;77.06
81196;BME280;70671;43.888;-79.394;2024-03-23T07:54:21;99469.69;;;-4.91;76.78
81196;BME280;70671;43.888;-79.394;2024-03-23T07:56:47;99472.59;;;-4.84;76.07
81196;BME280;70671;43.888;-79.394;2024-03-23T07:59:13;99451.91;;;-5.11;76.76
81196;BME280;70671;43.888;-79.394;2024-03-23T08:01:39;99451.47;;;-5.01;76.61
81196;BME280;70671;43.888;-79.394;2024-03-23T08:04:05;99446.78;;;-5.04;76.78
81196;BME280;70671;43.888;-79.394;2024-03-23T08:06:31;99446.78;;;-5.16;76.83
81196;BME280;70671;43.888;-79.394;2024-03-23T08:08:57;99464.22;;;-5.07;76.91
81196;BME280;70671;43.888;-79.394;2024-03-23T08:11:27;99447.41;;;-5.19;76.67
81196;BME280;70671;43.888;-79.394;2024-03-23T08:13:54;99446.75;;;-5.28;77.34
81196;BME280;70671;43.888;-79.394;2024-03-23T08:16:20;99429.66;;;-5.60;78.05
81196;BME280;70671;43.888;-79.394;2024-03-23T08:18:46;99427.38;;;-5.49;77.59
81196;BME280;70671;43.888;-79.394;2024-03-23T08:21:13;99446.00;;;-5.49;77.42
81196;BME280;70671;43.888;-79.394;2024-03-23T08:23:39;99444.66;;;-5.55;77.02
81196;BME280;70671;43.888;-79.394;2024-03-23T08:26:15;99434.69;;;-5.58;77.17
81196;BME280;70671;43.888;-79.394;2024-03-23T08:28:41;99414.66;;;-5.76;77.56
81196;BME280;70671;43.888;-79.394;2024-03-23T08:31:09;99406.66;;;-5.76;77.21
81196;BME280;70671;43.888;-79.394;2024-03-23T08:33:36;99429.84;;;-5.77;77.85
81196;BME280;70671;43.888;-79.394;2024-03-23T08:36:06;99416.13;;;-6.00;77.72
81196;BME280;70671;43.888;-79.394;2024-03-23T08:38:33;99432.03;;;-5.91;77.92
81196;BME280;70671;43.888;-79.394;2024-03-23T08:43:26;99420.28;;;-6.11;78.74
81196;BME280;70671;43.888;-79.394;2024-03-23T08:45:53;99418.72;;;-5.91;77.99
81196;BME280;70671;43.888;-79.394;2024-03-23T08:48:19;99400.66;;;-5.85;77.49
81196;BME280;70671;43.888;-79.394;2024-03-23T08:50:47;99424.22;;;-5.96;78.26
81196;BME280;70671;43.888;-79.394;2024-03-23T08:53:13;99432.59;;;-5.85;78.10
81196;BME280;70671;43.888;-79.394;2024-03-23T08:55:39;99433.72;;;-6.07;78.33
81196;BME280;70671;43.888;-79.394;2024-03-23T08:58:05;99431.63;;;-6.02;78.54
81196;BME280;70671;43.888;-79.394;2024-03-23T09:00:34;99423.25;;;-5.92;77.15
81196;BME280;70671;43.888;-79.394;2024-03-23T09:03:00;99411.25;;;-6.18;76.61
81196;BME280;70671;43.888;-79.394;2024-03-23T09:05:28;99422.16;;;-6.32;77.82
81196;BME280;70671;43.888;-79.394;2024-03-23T09:07:56;99436.38;;;-6.28;77.58
81196;BME280;70671;43.888;-79.394;2024-03-23T09:10:22;99418.69;;;-6.53;76.93
81196;BME280;70671;43.888;-79.394;2024-03-23T09:12:48;99418.94;;;-6.46;77.24
81196;BME280;70671;43.888;-79.394;2024-03-23T09:15:14;99427.31;;;-6.56;77.04
81196;BME280;70671;43.888;-79.394;2024-03-23T09:17:41;99414.22;;;-6.90;77.85
81196;BME280;70671;43.888;-79.394;2024-03-23T09:20:07;99405.78;;;-6.92;78.21
81196;BME280;70671;43.888;-79.394;2024-03-23T09:22:34;99403.03;;;-7.04;78.60
81196;BME280;70671;43.888;-79.394;2024-03-23T09:25:00;99420.06;;;-7.05;79.15
81196;BME280;70671;43.888;-79.394;2024-03-23T09:27:26;99414.47;;;-7.12;80.18
81196;BME280;70671;43.888;-79.394;2024-03-23T09:29:52;99383.72;;;-7.22;79.47
81196;BME280;70671;43.888;-79.394;2024-03-23T09:32:18;99420.00;;;-7.26;79.40
81196;BME280;70671;43.888;-79.394;2024-03-23T09:34:44;99377.41;;;-7.46;80.00
81196;BME280;70671;43.888;-79.394;2024-03-23T09:37:10;99407.84;;;-7.44;79.99
81196;BME280;70671;43.888;-79.394;2024-03-23T09:39:37;99427.81;;;-7.29;79.77
81196;BME280;70671;43.888;-79.394;2024-03-23T09:42:04;99429.06;;;-7.35;79.36
81196;BME280;70671;43.888;-79.394;2024-03-23T09:44:30;99434.38;;;-7.35;79.91
81196;BME280;70671;43.888;-79.394;2024-03-23T09:46:56;99443.59;;;-7.33;79.78
81196;BME280;70671;43.888;-79.394;2024-03-23T09:49:22;99399.13;;;-7.53;79.47
81196;BME280;70671;43.888;-79.394;2024-03-23T09:51:48;99440.66;;;-7.40;80.14
81196;BME280;70671;43.888;-79.394;2024-03-23T09:54:14;99418.84;;;-7.63;79.77
81196;BME280;70671;43.888;-79.394;2024-03-23T09:56:40;99456.75;;;-7.45;79.72
81196;BME280;70671;43.888;-79.394;2024-03-23T09:59:06;99441.31;;;-7.51;79.51
81196;BME280;70671;43.888;-79.394;2024-03-23T10:01:33;99446.63;;;-7.51;79.80
81196;BME280;70671;43.888;-79.394;2024-03-23T10:03:59;99432.06;;;-7.45;79.55
81196;BME280;70671;43.888;-79.394;2024-03-23T10:06:25;99461.16;;;-7.49;79.41
81196;BME280;70671;43.888;-79.394;2024-03-23T10:08:52;99457.53;;;-7.44;79.28
81196;BME280;70671;43.888;-79.394;2024-03-23T10:11:20;99470.03;;;-7.36;78.80
81196;BME280;70671;43.888;-79.394;2024-03-23T10:13:47;99464.13;;;-7.50;79.19
81196;BME280;70671;43.888;-79.394;2024-03-23T10:16:21;99471.47;;;-7.65;78.85
81196;BME280;70671;43.888;-79.394;2024-03-23T10:18:48;99458.03;;;-7.77;79.06
81196;BME280;70671;43.888;-79.394;2024-03-23T10:21:15;99500.69;;;-7.65;79.62
81196;BME280;70671;43.888;-79.394;2024-03-23T10:23:42;99492.22;;;-7.49;78.88
81196;BME280;70671;43.888;-79.394;2024-03-23T10:26:21;99494.13;;;-7.59;79.14
81196;BME280;70671;43.888;-79.394;2024-03-23T10:31:34;99500.06;;;-7.62;79.50
81196;BME280;70671;43.888;-79.394;2024-03-23T10:34:05;99491.47;;;-7.76;79.37
81196;BME280;70671;43.888;-79.394;2024-03-23T10:36:32;99475.41;;;-7.88;79.72
81196;BME280;70671;43.888;-79.394;2024-03-23T10:39:00;99489.28;;;-7.74;80.12
81196;BME280;70671;43.888;-79.394;2024-03-23T10:41:27;99481.00;;;-7.81;79.97
81196;BME280;70671;43.888;-79.394;2024-03-23T10:43:55;99499.25;;;-7.62;79.58
81196;BME280;70671;43.888;-79.394;2024-03-23T10:46:23;99478.38;;;-7.89;79.72
81196;BME280;70671;43.888;-79.394;2024-03-23T10:48:49;99476.00;;;-7.91;79.33
81196;BME280;70671;43.888;-79.394;2024-03-23T10:51:15;99481.94;;;-7.77;79.14
81196;BME280;70671;43.888;-79.394;2024-03-23T10:53:41;99468.06;;;-7.99;80.00
81196;BME280;70671;43.888;-79.394;2024-03-23T10:56:11;99485.69;;;-7.78;79.74
81196;BME280;70671;43.888;-79.394;2024-03-23T10:58:43;99496.44;;;-7.83;79.70
81196;BME280;70671;43.888;-79.394;2024-03-23T11:01:13;99495.38;;;-7.82;79.73
81196;BME280;70671;43.888;-79.394;2024-03-23T11:03:45;99491.16;;;-7.91;79.84
81196;BME280;70671;43.888;-79.394;2024-03-23T11:06:35;99501.13;;;-7.97;79.83
81196;BME280;70671;43.888;-79.394;2024-03-23T11:09:02;99492.72;;;-7.90;79.32
81196;BME280;70671;43.888;-79.394;2024-03-23T11:11:28;99488.34;;;-8.03;79.75
81196;BME280;70671;43.888;-79.394;2024-03-23T11:13:57;99474.13;;;-7.99;79.78
81196;BME280;70671;43.888;-79.394;2024-03-23T11:16:25;99502.09;;;-7.67;79.31
81196;BME280;70671;43.888;-79.394;2024-03-23T11:19:39;99499.44;;;-7.76;79.20
81196;BME280;70671;43.888;-79.394;2024-03-23T11:22:05;99509.28;;;-7.93;79.17
81196;BME280;70671;43.888;-79.394;2024-03-23T11:24:32;99508.47;;;-7.77;79.91
81196;BME280;70671;43.888;-79.394;2024-03-23T11:26:58;99473.84;;;-8.06;80.38
81196;BME280;70671;43.888;-79.394;2024-03-23T11:29:29;99499.41;;;-7.93;80.31
81196;BME280;70671;43.888;-79.394;2024-03-23T11:31:56;99513.97;;;-7.82;80.76
81196;BME280;70671;43.888;-79.394;2024-03-23T11:34:23;99517.41;;;-7.81;80.53
81196;BME280;70671;43.888;-79.394;2024-03-23T11:36:49;99533.78;;;-7.88;80.33
81196;BME280;70671;43.888;-79.394;2024-03-23T11:39:20;99520.06;;;-7.73;80.53
81196;BME280;70671;43.888;-79.394;2024-03-23T11:41:53;99517.41;;;-7.81;80.11
81196;BME280;70671;43.888;-79.394;2024-03-23T11:44:23;99498.16;;;-7.87;79.95
81196;BME280;70671;43.888;-79.394;2024-03-23T11:46:51;99490.22;;;-7.78;80.09
81196;BME280;70671;43.888;-79.394;2024-03-23T11:49:26;99521.13;;;-7.74;80.10
81196;BME280;70671;43.888;-79.394;2024-03-23T11:51:54;99506.94;;;-7.78;79.74
81196;BME280;70671;43.888;-79.394;2024-03-23T11:54:22;99520.81;;;-7.64;80.11
81196;BME280;70671;43.888;-79.394;2024-03-23T11:57:02;99513.19;;;-7.57;80.45
81196;BME280;70671;43.888;-79.394;2024-03-23T11:59:39;99508.94;;;-7.49;80.57
81196;BME280;70671;43.888;-79.394;2024-03-23T12:02:10;99518.63;;;-7.36;80.54
81196;BME280;70671;43.888;-79.394;2024-03-23T12:04:38;99506.75;;;-7.30;80.05
81196;BME280;70671;43.888;-79.394;2024-03-23T12:07:15;99509.81;;;-7.11;80.18
81196;BME280;70671;43.888;-79.394;2024-03-23T12:09:42;99490.16;;;-7.35;79.81
81196;BME280;70671;43.888;-79.394;2024-03-23T12:12:14;99502.78;;;-7.15;80.11
81196;BME280;70671;43.888;-79.394;2024-03-23T12:14:44;99491.06;;;-7.14;80.13
81196;BME280;70671;43.888;-79.394;2024-03-23T12:17:12;99502.16;;;-7.12;80.25
81196;BME280;70671;43.888;-79.394;2024-03-23T12:19:38;99508.38;;;-6.91;79.45
81196;BME280;70671;43.888;-79.394;2024-03-23T12:22:05;99482.97;;;-7.18;79.19
81196;BME280;70671;43.888;-79.394;2024-03-23T12:24:31;99515.53;;;-6.83;79.38
81196;BME280;70671;43.888;-79.394;2024-03-23T12:27:00;99524.31;;;-6.91;79.93
81196;BME280;70671;43.888;-79.394;2024-03-23T12:29:28;99507.56;;;-6.83;79.63
81196;BME280;70671;43.888;-79.394;2024-03-23T12:31:55;99508.00;;;-6.81;79.37
81196;BME280;70671;43.888;-79.394;2024-03-23T12:34:21;99524.88;;;-6.68;78.89
81196;BME280;70671;43.888;-79.394;2024-03-23T12:36:47;99518.28;;;-6.71;79.08
81196;BME280;70671;43.888;-79.394;2024-03-23T12:39:13;99474.53;;;-6.82;78.79
81196;BME280;70671;43.888;-79.394;2024-03-23T12:41:39;99501.69;;;-6.68;79.03
81196;BME280;70671;43.888;-79.394;2024-03-23T12:44:05;99517.56;;;-6.51;78.15
81196;BME280;70671;43.888;-79.394;2024-03-23T12:46:34;99516.91;;;-6.48;78.71
81196;BME280;70671;43.888;-79.394;2024-03-23T12:49:00;99494.44;;;-6.50;78.30
81196;BME280;70671;43.888;-79.394;2024-03-23T12:51:26;99515.78;;;-6.38;78.34
81196;BME280;70671;43.888;-79.394;2024-03-23T12:53:52;99519.09;;;-6.41;78.79
81196;BME280;70671;43.888;-79.394;2024-03-23T12:56:17;99493.19;;;-6.53;78.30
81196;BME280;70671;43.888;-79.394;2024-03-23T12:58:44;99537.13;;;-6.18;78.82
81196;BME280;70671;43.888;-79.394;2024-03-23T13:01:10;99532.19;;;-6.28;78.47
81196;BME280;70671;43.888;-79.394;2024-03-23T13:03:36;99525.19;;;-6.12;78.33
81196;BME280;70671;43.888;-79.394;2024-03-23T13:06:02;99532.34;;;-6.04;78.21
81196;BME280;70671;43.888;-79.394;2024-03-23T13:08:33;99535.22;;;-5.88;77.84
81196;BME280;70671;43.888;-79.394;2024-03-23T13:10:59;99532.41;;;-5.71;77.46
81196;BME280;70671;43.888;-79.394;2024-03-23T13:13:25;99527.53;;;-5.69;76.67
81196;BME280;70671;43.888;-79.394;2024-03-23T13:15:51;99541.03;;;-5.53;76.41
81196;BME280;70671;43.888;-79.394;2024-03-23T13:18:17;99537.09;;;-5.35;76.05
81196;BME280;70671;43.888;-79.394;2024-03-23T13:20:43;99549.22;;;-5.38;75.23
81196;BME280;70671;43.888;-79.394;2024-03-23T13:23:09;99539.69;;;-5.27;75.33
81196;BME280;70671;43.888;-79.394;2024-03-23T13:25:35;99545.09;;;-5.35;75.73
81196;BME280;70671;43.888;-79.394;2024-03-23T13:28:02;99551.72;;;-5.21;75.36
81196;BME280;70671;43.888;-79.394;2024-03-23T13:30:29;99552.63;;;-5.17;74.99
81196;BME280;70671;43.888;-79.394;2024-03-23T13:32:55;99559.63;;;-5.12;74.82
81196;BME280;70671;43.888;-79.394;2024-03-23T13:35:24;99568.81;;;-5.01;75.04
81196;BME280;70671;43.888;-79.394;2024-03-23T13:37:50;99564.09;;;-5.04;74.26